Time;durP1;ratioP1;P1;durP2;ratioP2;P2;SDS_P1;SDS_P2;PMS_P1;PMS_P2;Temp;Humidity;BMP_temperature;BMP_pressure;BME280_temperature;BME280_humidity;BME280_pressure;Samples;Min_cycle;Max_cycle;Signal;HPM_P1;HPM_P2
2024/01/05 00:01:08;;;;;;;6.70;2.87;;;8.50;99.90;;;;;;4993452;28;20223;-77
2024/01/05 00:03:36;;;;;;;8.10;2.40;;;8.40;99.90;;;;;;4977853;28;20216;-77
2024/01/05 00:06:04;;;;;;;3.87;2.07;;;8.40;99.90;;;;;;4995049;28;20203;-77
2024/01/05 00:08:31;;;;;;;6.10;2.20;;;8.50;99.90;;;;;;4977833;28;20211;-77
2024/01/05 00:10:59;;;;;;;7.50;2.40;;;8.50;99.90;;;;;;4977506;28;20200;-77
2024/01/05 00:13:26;;;;;;;7.63;2.20;;;8.50;99.90;;;;;;4977219;28;20212;-77
2024/01/05 00:15:53;;;;;;;8.53;2.10;;;8.50;99.90;;;;;;4977022;28;20208;-77
2024/01/05 00:18:21;;;;;;;5.50;2.10;;;8.50;99.90;;;;;;4977735;28;20200;-77
2024/01/05 00:20:50;;;;;;;7.03;2.70;;;8.50;99.90;;;;;;4992778;28;20211;-77
2024/01/05 00:23:17;;;;;;;7.07;2.40;;;8.50;99.90;;;;;;4991993;28;20693;-78
2024/01/05 00:25:45;;;;;;;6.90;2.60;;;8.60;99.90;;;;;;4977148;28;20204;-78
2024/01/05 00:28:12;;;;;;;6.83;2.53;;;8.50;99.90;;;;;;4993859;28;20203;-78
2024/01/05 00:30:40;;;;;;;12.90;2.67;;;8.50;99.90;;;;;;4981197;28;20193;-78
2024/01/05 00:33:07;;;;;;;6.93;2.63;;;8.60;99.90;;;;;;4977228;28;20212;-78
2024/01/05 00:35:39;;;;;;;7.80;2.30;;;8.60;99.90;;;;;;4976409;28;20197;-78
2024/01/05 00:38:08;;;;;;;11.53;2.67;;;8.70;99.90;;;;;;4993609;28;20547;-77
2024/01/05 00:40:36;;;;;;;12.00;3.23;;;8.60;99.90;;;;;;4993161;28;20559;-77
2024/01/05 00:43:03;;;;;;;7.03;2.43;;;8.70;99.90;;;;;;4994400;28;20212;-77
2024/01/05 00:45:31;;;;;;;9.03;2.50;;;8.70;99.90;;;;;;5022554;23;20216;-78
2024/01/05 00:47:58;;;;;;;8.93;2.73;;;8.80;99.90;;;;;;4999213;28;20206;-78
2024/01/05 00:50:26;;;;;;;10.13;2.60;;;8.70;99.90;;;;;;5000233;28;20684;-78
2024/01/05 00:52:53;;;;;;;8.83;2.70;;;8.80;99.90;;;;;;5000618;28;20192;-78
2024/01/05 00:55:23;;;;;;;8.93;2.73;;;8.70;99.90;;;;;;4999662;28;20222;-78
2024/01/05 00:57:51;;;;;;;6.63;2.63;;;8.80;99.90;;;;;;5018439;28;20192;-78
2024/01/05 01:00:19;;;;;;;8.77;2.77;;;8.80;99.90;;;;;;5000760;28;20196;-78
2024/01/05 01:02:46;;;;;;;8.27;2.73;;;8.80;99.90;;;;;;5011440;28;20228;-78
2024/01/05 01:05:13;;;;;;;9.27;2.73;;;8.80;99.90;;;;;;5000854;28;20234;-78
2024/01/05 01:07:41;;;;;;;4.07;1.93;;;8.80;99.90;;;;;;5001784;28;20202;-79
2024/01/05 01:10:08;;;;;;;8.20;2.50;;;8.90;99.90;;;;;;5001065;28;20199;-78
2024/01/05 01:12:37;;;;;;;8.00;2.37;;;8.90;99.90;;;;;;4998914;28;20196;-78
2024/01/05 01:15:06;;;;;;;4.97;2.00;;;8.80;99.90;;;;;;5019006;28;20192;-79
2024/01/05 01:17:34;;;;;;;10.47;2.87;;;8.90;99.90;;;;;;5002168;28;20202;-79
2024/01/05 01:20:01;;;;;;;11.03;3.23;;;8.90;99.90;;;;;;5017327;28;20210;-78
2024/01/05 01:22:29;;;;;;;7.63;2.37;;;8.90;99.90;;;;;;4999803;28;20219;-79
2024/01/05 01:24:56;;;;;;;7.77;2.13;;;8.90;99.90;;;;;;4994974;28;20681;-78
2024/01/05 01:27:24;;;;;;;7.07;2.20;;;8.90;99.90;;;;;;5002609;28;20211;-78
2024/01/05 01:29:53;;;;;;;10.43;2.77;;;9.00;99.90;;;;;;5018852;28;20191;-79
2024/01/05 01:32:20;;;;;;;8.87;2.40;;;8.90;99.90;;;;;;5002066;28;20211;-78
2024/01/05 01:34:47;;;;;;;7.43;2.37;;;8.90;99.90;;;;;;5015820;28;20199;-78
2024/01/05 01:37:15;;;;;;;9.67;2.83;;;8.90;99.90;;;;;;5002735;28;20196;-78
2024/01/05 01:39:42;;;;;;;8.57;2.30;;;8.90;99.90;;;;;;5001951;28;20195;-78
2024/01/05 01:42:09;;;;;;;11.40;2.90;;;9.00;99.90;;;;;;5010509;28;20224;-78
2024/01/05 01:44:37;;;;;;;6.50;2.43;;;9.00;99.90;;;;;;5002793;28;20203;-78
2024/01/05 01:47:06;;;;;;;9.07;2.07;;;8.90;99.90;;;;;;5019194;28;20223;-78
2024/01/05 01:49:34;;;;;;;11.07;2.73;;;9.00;99.90;;;;;;5019781;28;20191;-79
2024/01/05 01:52:02;;;;;;;8.97;2.27;;;8.90;99.90;;;;;;5019260;28;20188;-78
2024/01/05 01:54:32;;;;;;;3.97;1.83;;;8.90;99.90;;;;;;4997152;28;20211;-78
2024/01/05 01:57:00;;;;;;;10.27;2.63;;;8.90;99.90;;;;;;5000935;28;20253;-78
2024/01/05 01:59:27;;;;;;;8.87;2.43;;;8.90;99.90;;;;;;5001321;28;20207;-79
2024/01/05 02:01:55;;;;;;;5.53;2.00;;;8.90;99.90;;;;;;5001334;28;20234;-78
2024/01/05 02:04:25;;;;;;;7.93;2.87;;;8.90;99.90;;;;;;4999994;28;20207;-78
2024/01/05 02:06:53;;;;;;;6.50;1.83;;;8.90;99.90;;;;;;4999957;28;20223;-79
2024/01/05 02:09:20;;;;;;;7.03;1.97;;;8.90;99.90;;;;;;4995190;28;20204;-78
2024/01/05 02:11:48;;;;;;;8.23;2.13;;;8.90;99.90;;;;;;5016842;28;20195;-79
2024/01/05 02:14:16;;;;;;;8.03;2.27;;;8.90;99.90;;;;;;5005941;28;20211;-78
2024/01/05 02:16:43;;;;;;;9.83;2.10;;;8.80;99.90;;;;;;4995261;28;20224;-78
2024/01/05 02:19:11;;;;;;;7.60;2.70;;;8.90;99.90;;;;;;4998441;28;20206;-78
2024/01/05 02:21:43;;;;;;;9.30;2.10;;;8.80;99.90;;;;;;5016808;28;20196;-78
2024/01/05 02:24:11;;;;;;;7.47;2.17;;;8.80;99.90;;;;;;4995622;28;20569;-78
2024/01/05 02:26:39;;;;;;;9.23;2.13;;;8.80;99.90;;;;;;4993850;28;20216;-78
2024/01/05 02:29:08;;;;;;;8.97;2.40;;;8.80;99.90;;;;;;5012434;28;20188;-78
2024/01/05 02:31:35;;;;;;;10.40;2.37;;;8.80;99.90;;;;;;5010466;28;20192;-79
2024/01/05 02:34:02;;;;;;;8.37;1.97;;;8.80;99.90;;;;;;4998771;28;20196;-78
2024/01/05 02:36:30;;;;;;;6.20;2.40;;;8.80;99.90;;;;;;5013457;28;20223;-78
2024/01/05 02:38:57;;;;;;;8.00;1.97;;;8.80;99.90;;;;;;5007011;28;20200;-78
2024/01/05 02:41:40;;;;;;;6.53;2.00;;;8.80;99.90;;;;;;5003151;28;20564;-78
2024/01/05 02:44:08;;;;;;;8.37;2.03;;;8.70;99.90;;;;;;4999013;28;20230;-78
2024/01/05 02:46:37;;;;;;;6.33;1.80;;;8.80;99.90;;;;;;4997465;28;20230;-78
2024/01/05 02:49:05;;;;;;;6.40;1.90;;;8.70;99.90;;;;;;4995561;28;20199;-78
2024/01/05 02:51:32;;;;;;;6.50;1.77;;;8.70;99.90;;;;;;4992962;28;20192;-78
2024/01/05 02:54:00;;;;;;;4.77;1.93;;;8.70;99.90;;;;;;5015933;28;20206;-78
2024/01/05 02:56:27;;;;;;;7.43;1.87;;;8.70;99.90;;;;;;4996648;28;20220;-78
2024/01/05 02:58:56;;;;;;;5.83;1.87;;;8.70;99.90;;;;;;5013234;28;20187;-78
2024/01/05 03:01:23;;;;;;;9.50;2.13;;;8.60;99.90;;;;;;5011949;28;20199;-79
2024/01/05 03:03:51;;;;;;;8.17;2.20;;;8.60;99.90;;;;;;5017052;28;20218;-78
2024/01/05 03:06:19;;;;;;;6.23;2.47;;;8.60;99.90;;;;;;4987657;28;20220;-78
2024/01/05 03:08:46;;;;;;;5.70;2.07;;;8.60;99.90;;;;;;5000719;28;20211;-78
2024/01/05 03:11:14;;;;;;;7.50;2.20;;;8.60;99.90;;;;;;5002871;28;20665;-78
2024/01/05 03:13:41;;;;;;;7.73;1.80;;;8.60;99.90;;;;;;5002885;28;20191;-78
2024/01/05 03:16:10;;;;;;;7.50;2.10;;;8.60;99.90;;;;;;5020688;28;20214;-78
2024/01/05 03:18:37;;;;;;;9.30;2.67;;;8.60;99.90;;;;;;5002244;28;20207;-78
2024/01/05 03:21:05;;;;;;;7.10;2.23;;;8.70;99.90;;;;;;5003256;28;20207;-78
2024/01/05 03:23:32;;;;;;;9.73;1.93;;;8.60;99.90;;;;;;5003016;28;20219;-78
2024/01/05 03:26:00;;;;;;;7.03;2.60;;;8.60;99.90;;;;;;5002382;28;20216;-78
2024/01/05 03:28:27;;;;;;;8.53;2.23;;;8.60;99.90;;;;;;4997509;28;20203;-78
2024/01/05 03:30:55;;;;;;;7.43;2.10;;;8.60;99.90;;;;;;5000447;28;20200;-78
2024/01/05 03:33:24;;;;;;;6.27;2.00;;;8.50;99.90;;;;;;5022167;28;20188;-78
2024/01/05 03:35:51;;;;;;;7.43;2.17;;;8.50;99.90;;;;;;5001044;28;20220;-79
2024/01/05 03:38:18;;;;;;;7.30;2.07;;;8.60;99.90;;;;;;5016481;28;20215;-78
2024/01/05 03:40:46;;;;;;;5.90;2.17;;;8.60;99.90;;;;;;5002201;28;20219;-78
2024/01/05 03:43:13;;;;;;;9.33;2.30;;;8.60;99.90;;;;;;5002791;28;20577;-78
2024/01/05 03:45:41;;;;;;;6.00;2.13;;;8.60;99.90;;;;;;5021411;28;20220;-78
2024/01/05 03:48:08;;;;;;;7.37;2.00;;;8.60;99.90;;;;;;5002426;28;20538;-78
2024/01/05 03:50:37;;;;;;;7.33;1.83;;;8.50;99.90;;;;;;5003615;28;20211;-78
2024/01/05 03:53:04;;;;;;;5.87;1.80;;;8.50;99.90;;;;;;5019951;28;20199;-78
2024/01/05 03:55:32;;;;;;;8.40;2.43;;;8.50;99.90;;;;;;5008245;28;20220;-78
2024/01/05 03:57:59;;;;;;;5.43;2.60;;;8.50;99.90;;;;;;5002669;28;20204;-78
2024/01/05 04:00:27;;;;;;;8.47;2.67;;;8.60;99.90;;;;;;5000538;28;20200;-79
2024/01/05 04:02:54;;;;;;;8.57;2.27;;;8.50;99.90;;;;;;5001215;28;20208;-77
2024/01/05 04:05:21;;;;;;;6.63;2.20;;;8.50;99.90;;;;;;4999681;28;20215;-78
2024/01/05 04:07:50;;;;;;;4.87;2.67;;;8.50;99.90;;;;;;5007860;28;20200;-78
2024/01/05 04:10:18;;;;;;;6.87;2.20;;;8.50;99.90;;;;;;5001391;28;20585;-78
2024/01/05 04:12:45;;;;;;;5.43;2.00;;;8.50;99.90;;;;;;4996779;28;20200;-78
2024/01/05 04:15:12;;;;;;;7.03;2.70;;;8.50;99.90;;;;;;4995789;28;20231;-78
2024/01/05 04:17:40;;;;;;;4.43;2.13;;;8.50;99.90;;;;;;5010179;28;20215;-78
2024/01/05 04:20:08;;;;;;;4.77;2.43;;;8.40;99.90;;;;;;5017501;28;20194;-78
2024/01/05 04:22:36;;;;;;;5.07;1.90;;;8.50;99.90;;;;;;4999827;28;20207;-77
2024/01/05 04:25:05;;;;;;;6.13;2.77;;;8.50;99.90;;;;;;4997920;28;20208;-78
2024/01/05 04:27:32;;;;;;;5.03;1.77;;;8.50;99.90;;;;;;4987308;28;20211;-77
2024/01/05 04:30:00;;;;;;;6.33;1.97;;;8.40;99.90;;;;;;4995114;28;20211;-78
2024/01/05 04:32:27;;;;;;;4.83;1.47;;;8.50;99.90;;;;;;5000180;28;20203;-78
2024/01/05 04:34:54;;;;;;;5.53;2.00;;;8.60;99.90;;;;;;5017793;28;20549;-77
2024/01/05 04:37:22;;;;;;;4.37;2.13;;;8.60;99.90;;;;;;5000073;28;20196;-78
2024/01/05 04:39:49;;;;;;;7.77;1.90;;;8.60;99.90;;;;;;5000301;28;20200;-78
2024/01/05 04:42:18;;;;;;;7.50;2.13;;;8.60;99.90;;;;;;4998272;28;20199;-78
2024/01/05 04:44:45;;;;;;;6.50;2.40;;;8.60;99.90;;;;;;4981254;28;20231;-78
2024/01/05 04:47:13;;;;;;;8.40;2.50;;;8.60;99.90;;;;;;4993962;28;20227;-78
2024/01/05 04:49:40;;;;;;;5.07;2.60;;;8.60;99.90;;;;;;5000188;28;20196;-78
2024/01/05 04:52:08;;;;;;;7.77;2.37;;;8.60;99.90;;;;;;5018051;28;20263;-78
2024/01/05 04:54:35;;;;;;;5.30;1.97;;;8.70;99.90;;;;;;5000276;28;20210;-78
2024/01/05 04:57:02;;;;;;;8.43;2.17;;;8.70;99.90;;;;;;4993675;28;20958;-78
2024/01/05 04:59:31;;;;;;;4.80;2.00;;;8.70;99.90;;;;;;5000172;28;20207;-78
2024/01/05 05:01:59;;;;;;;9.80;2.80;;;8.70;99.90;;;;;;5000560;28;20200;-78
2024/01/05 05:04:27;;;;;;;6.50;1.77;;;8.70;99.90;;;;;;5018350;28;20207;-78
2024/01/05 05:06:54;;;;;;;4.37;1.73;;;8.70;99.90;;;;;;5017400;28;20223;-78
2024/01/05 05:09:21;;;;;;;6.00;1.50;;;8.70;99.90;;;;;;5018448;28;20187;-78
2024/01/05 05:11:49;;;;;;;5.13;2.00;;;8.70;99.90;;;;;;4980555;28;20223;-78
2024/01/05 05:14:16;;;;;;;5.93;2.20;;;8.70;99.90;;;;;;4999124;28;20189;-78
2024/01/05 05:16:45;;;;;;;6.43;1.80;;;8.70;99.90;;;;;;4980610;28;20228;-77
2024/01/05 05:19:12;;;;;;;4.43;1.97;;;8.70;99.90;;;;;;5000060;28;20210;-78
2024/01/05 05:21:40;;;;;;;3.50;1.80;;;8.80;99.90;;;;;;5000277;28;20223;-78
2024/01/05 05:24:07;;;;;;;4.77;2.20;;;8.80;99.90;;;;;;4985007;28;20224;-78
2024/01/05 05:26:34;;;;;;;6.60;2.23;;;8.70;99.90;;;;;;4980175;28;20220;-78
2024/01/05 05:29:02;;;;;;;5.23;2.00;;;8.70;99.90;;;;;;4998684;28;20211;-78
2024/01/05 05:31:29;;;;;;;8.33;2.33;;;8.80;99.90;;;;;;4981040;28;20223;-78
2024/01/05 05:33:58;;;;;;;3.87;1.70;;;8.80;99.90;;;;;;4979584;28;20211;-78
2024/01/05 05:36:25;;;;;;;4.67;1.97;;;8.90;99.90;;;;;;4991885;28;20226;-77
2024/01/05 05:38:53;;;;;;;6.47;2.47;;;8.80;99.90;;;;;;4997457;28;20204;-78
2024/01/05 05:41:20;;;;;;;5.27;1.80;;;8.80;99.90;;;;;;4997920;28;20204;-78
2024/01/05 05:43:47;;;;;;;7.07;1.67;;;8.80;99.90;;;;;;4995160;28;20221;-78
2024/01/05 05:46:15;;;;;;;5.27;1.90;;;8.80;99.90;;;;;;5009704;28;20219;-78
2024/01/05 05:48:42;;;;;;;7.57;2.13;;;8.80;99.90;;;;;;4998714;28;20199;-78
2024/01/05 05:51:12;;;;;;;6.53;1.90;;;8.80;99.90;;;;;;5016588;28;20653;-78
2024/01/05 05:53:39;;;;;;;3.47;2.00;;;8.80;99.90;;;;;;4998060;28;20200;-78
2024/01/05 05:56:07;;;;;;;6.33;2.73;;;8.80;99.90;;;;;;4997384;28;20564;-78
2024/01/05 05:58:34;;;;;;;4.97;1.50;;;8.80;99.90;;;;;;5015618;28;20195;-78
2024/01/05 06:01:01;;;;;;;6.60;2.27;;;8.80;99.90;;;;;;4997837;28;20207;-77
2024/01/05 06:03:29;;;;;;;6.30;1.80;;;8.90;99.90;;;;;;4998185;28;20199;-78
2024/01/05 06:05:56;;;;;;;8.23;1.80;;;8.90;99.90;;;;;;4996488;28;20555;-78
2024/01/05 06:08:25;;;;;;;6.77;1.90;;;8.80;99.90;;;;;;5008359;28;20204;-78
2024/01/05 06:10:53;;;;;;;8.23;2.50;;;8.90;99.90;;;;;;5016378;28;20196;-78
2024/01/05 06:13:20;;;;;;;5.40;2.03;;;8.80;99.90;;;;;;4996869;28;20208;-78
2024/01/05 06:15:48;;;;;;;3.03;1.93;;;8.80;99.90;;;;;;4978661;28;20216;-78
2024/01/05 06:18:15;;;;;;;7.87;2.47;;;8.80;99.90;;;;;;4987682;28;20223;-78
2024/01/05 06:20:42;;;;;;;6.40;2.17;;;8.80;99.90;;;;;;4986511;28;20569;-78
2024/01/05 06:23:22;;;;;;;4.27;1.47;;;8.80;99.90;;;;;;4978227;28;20199;-77
2024/01/05 06:26:03;;;;;;;4.23;1.60;;;8.80;99.90;;;;;;5013657;28;20234;-78
2024/01/05 06:28:30;;;;;;;5.27;2.17;;;8.80;99.90;;;;;;4996253;28;20203;-78
2024/01/05 06:30:58;;;;;;;6.63;1.67;;;8.70;99.90;;;;;;5014687;28;20207;-78
2024/01/05 06:33:25;;;;;;;4.27;1.97;;;8.70;99.90;;;;;;4991887;28;20203;-78
2024/01/05 06:35:52;;;;;;;5.83;1.80;;;8.70;99.90;;;;;;5011336;28;20219;-78
2024/01/05 06:38:20;;;;;;;4.80;1.60;;;8.70;99.90;;;;;;5012680;28;20544;-77
2024/01/05 06:40:48;;;;;;;4.07;1.77;;;8.70;99.90;;;;;;4996153;28;20212;-78
2024/01/05 06:43:17;;;;;;;5.43;1.80;;;8.80;99.90;;;;;;5014732;28;20200;-78
2024/01/05 06:45:44;;;;;;;8.33;2.17;;;8.80;99.90;;;;;;5017190;28;20660;-78
2024/01/05 06:48:12;;;;;;;6.23;1.47;;;8.80;99.90;;;;;;5005174;28;20654;-78
2024/01/05 06:50:39;;;;;;;5.20;1.87;;;8.80;99.90;;;;;;4991177;28;20558;-78
2024/01/05 06:53:07;;;;;;;5.57;2.03;;;8.70;99.90;;;;;;5018746;28;20192;-78
2024/01/05 06:55:34;;;;;;;6.33;1.80;;;8.70;99.90;;;;;;5001645;28;20227;-78
2024/01/05 06:58:03;;;;;;;4.93;1.50;;;8.70;99.90;;;;;;4999858;28;20204;-78
2024/01/05 07:00:31;;;;;;;6.90;2.30;;;8.70;99.90;;;;;;4998821;28;20215;-78
2024/01/05 07:02:59;;;;;;;6.53;2.03;;;8.70;99.90;;;;;;5020461;28;20199;-78
2024/01/05 07:05:26;;;;;;;3.43;1.33;;;8.70;99.90;;;;;;4997088;28;20232;-78
2024/01/05 07:07:54;;;;;;;4.27;1.80;;;8.70;99.90;;;;;;4993924;28;20200;-78
2024/01/05 07:10:21;;;;;;;5.37;1.87;;;8.70;99.90;;;;;;5012924;28;20180;-78
2024/01/05 07:12:49;;;;;;;3.90;1.50;;;8.60;99.90;;;;;;4999478;28;20206;-78
2024/01/05 07:15:17;;;;;;;4.33;1.90;;;8.80;99.90;;;;;;5018229;28;20212;-78
2024/01/05 07:17:46;;;;;;;3.77;1.70;;;8.80;99.90;;;;;;5019546;28;20191;-78
2024/01/05 07:20:14;;;;;;;2.40;1.40;;;8.70;99.90;;;;;;5000080;28;20195;-78
2024/01/05 07:22:41;;;;;;;3.53;1.47;;;8.80;99.90;;;;;;5013575;28;20689;-78
2024/01/05 07:25:10;;;;;;;3.23;1.40;;;8.80;99.90;;;;;;5012481;28;20228;-77
2024/01/05 07:27:37;;;;;;;3.80;1.73;;;8.80;99.90;;;;;;5010437;28;20210;-78
2024/01/05 07:30:06;;;;;;;3.87;1.93;;;8.80;99.90;;;;;;5011364;28;20204;-78
2024/01/05 07:32:33;;;;;;;2.77;1.17;;;8.80;99.90;;;;;;4998598;28;20200;-78
2024/01/05 07:35:03;;;;;;;6.27;1.60;;;8.80;99.90;;;;;;5010405;28;20196;-78
2024/01/05 07:37:31;;;;;;;4.47;1.57;;;8.80;99.90;;;;;;4989756;28;20207;-77
2024/01/05 07:39:58;;;;;;;3.53;1.17;;;8.90;99.90;;;;;;4979582;28;20201;-77
2024/01/05 07:42:27;;;;;;;5.23;1.40;;;8.90;99.90;;;;;;5015954;28;20195;-77
2024/01/05 07:44:57;;;;;;;5.77;1.80;;;8.90;99.90;;;;;;5014717;28;20211;-78
2024/01/05 07:47:24;;;;;;;3.03;1.50;;;8.90;99.90;;;;;;5000796;28;20199;-78
2024/01/05 07:49:52;;;;;;;3.43;1.40;;;9.00;99.90;;;;;;4994332;28;20207;-78
2024/01/05 07:52:20;;;;;;;4.27;1.37;;;8.90;99.90;;;;;;4999596;28;20199;-79
2024/01/05 07:54:48;;;;;;;4.53;1.40;;;9.00;99.90;;;;;;4999655;28;20206;-78
2024/01/05 07:57:19;;;;;;;4.30;1.10;;;9.00;99.90;;;;;;5001114;28;20195;-78
2024/01/05 07:59:46;;;;;;;3.17;1.40;;;9.00;99.90;;;;;;4994924;28;20463;-79
2024/01/05 08:02:14;;;;;;;2.53;1.57;;;9.00;99.90;;;;;;5000482;28;20211;-79
2024/01/05 08:04:41;;;;;;;3.23;1.33;;;9.00;99.90;;;;;;5004539;28;20239;-79
2024/01/05 08:07:08;;;;;;;3.03;1.20;;;9.00;99.90;;;;;;4996548;28;20618;-79
2024/01/05 08:09:37;;;;;;;4.13;1.33;;;9.10;99.90;;;;;;5020305;28;20192;-79
2024/01/05 08:12:05;;;;;;;3.37;1.50;;;9.10;99.90;;;;;;4999775;28;20200;-79
2024/01/05 08:14:32;;;;;;;3.40;1.30;;;9.00;99.90;;;;;;5005550;28;20206;-79
2024/01/05 08:17:00;;;;;;;5.30;1.47;;;9.10;99.90;;;;;;5004472;28;20224;-79
2024/01/05 08:19:27;;;;;;;5.73;1.20;;;9.10;99.90;;;;;;5005519;28;20199;-79
2024/01/05 08:21:55;;;;;;;5.83;1.33;;;9.20;99.90;;;;;;4989647;28;20201;-79
2024/01/05 08:24:25;;;;;;;4.47;1.50;;;9.10;99.90;;;;;;5000251;28;20550;-79
2024/01/05 08:26:54;;;;;;;5.93;1.47;;;9.20;99.90;;;;;;4999854;28;20232;-79
2024/01/05 08:29:22;;;;;;;5.00;1.33;;;9.20;99.90;;;;;;4985181;28;20204;-79
2024/01/05 08:31:50;;;;;;;5.07;2.23;;;9.20;99.90;;;;;;5011099;28;20203;-79
2024/01/05 08:34:17;;;;;;;3.03;1.20;;;9.20;99.90;;;;;;5012347;28;20196;-79
2024/01/05 08:36:45;;;;;;;2.83;1.10;;;9.20;99.90;;;;;;5012602;28;20200;-79
2024/01/05 08:39:12;;;;;;;4.47;1.53;;;9.30;99.90;;;;;;5003759;28;20215;-79
2024/01/05 08:41:43;;;;;;;2.17;1.63;;;9.30;99.90;;;;;;5004070;28;20195;-79
2024/01/05 08:44:12;;;;;;;3.30;1.57;;;9.40;99.90;;;;;;5011088;28;20184;-79
2024/01/05 08:46:39;;;;;;;2.30;1.10;;;9.40;99.90;;;;;;4985546;28;20235;-79
2024/01/05 08:49:06;;;;;;;3.93;1.30;;;9.30;99.90;;;;;;4988238;28;20570;-79
2024/01/05 08:51:34;;;;;;;2.47;0.97;;;9.30;99.90;;;;;;5005226;28;20210;-79
2024/01/05 08:54:03;;;;;;;3.23;1.43;;;9.40;99.90;;;;;;5010047;28;20204;-79
2024/01/05 08:56:30;;;;;;;3.60;1.07;;;9.30;99.90;;;;;;5000965;28;20216;-79
2024/01/05 08:58:58;;;;;;;3.67;1.07;;;9.40;99.90;;;;;;5001216;28;20210;-79
2024/01/05 09:01:27;;;;;;;3.30;1.10;;;9.40;99.90;;;;;;5019308;28;20196;-79
2024/01/05 09:03:54;;;;;;;3.80;1.07;;;9.40;99.90;;;;;;5021631;28;20577;-79
2024/01/05 09:06:21;;;;;;;6.30;1.17;;;9.40;99.90;;;;;;4998804;28;20216;-79
2024/01/05 09:08:57;;;;;;;2.03;1.00;;;9.50;99.90;;;;;;5002321;28;20573;-78
2024/01/05 09:11:24;;;;;;;5.20;1.20;;;9.40;99.90;;;;;;5001791;28;20202;-79
2024/01/05 09:13:52;;;;;;;2.60;1.00;;;9.40;99.90;;;;;;4996980;28;20281;-79
2024/01/05 09:16:19;;;;;;;1.40;0.87;;;9.40;99.90;;;;;;5019403;28;20230;-79
2024/01/05 09:18:48;;;;;;;3.50;0.90;;;9.40;99.90;;;;;;5022028;28;20195;-79
2024/01/05 09:21:15;;;;;;;2.67;1.10;;;9.40;99.90;;;;;;4986591;28;20211;-79
2024/01/05 09:23:43;;;;;;;1.70;0.80;;;9.40;99.90;;;;;;5000573;28;20658;-79
2024/01/05 09:26:14;;;;;;;1.03;0.70;;;9.40;99.90;;;;;;5004116;28;20230;-79
2024/01/05 09:28:42;;;;;;;3.07;1.33;;;9.40;99.90;;;;;;5004218;28;20192;-79
2024/01/05 09:31:09;;;;;;;2.47;0.90;;;9.40;99.90;;;;;;5003929;28;20200;-79
2024/01/05 09:33:37;;;;;;;1.97;0.90;;;9.40;99.90;;;;;;4994939;28;20207;-79
2024/01/05 09:36:06;;;;;;;2.37;1.10;;;9.30;99.90;;;;;;5000681;28;20221;-79
2024/01/05 09:38:34;;;;;;;4.77;0.90;;;9.40;99.90;;;;;;4988899;28;20196;-79
2024/01/05 09:41:02;;;;;;;0.83;0.50;;;9.30;99.90;;;;;;5021204;28;20200;-79
2024/01/05 09:43:30;;;;;;;1.87;0.80;;;9.40;99.90;;;;;;5002578;28;20196;-79
2024/01/05 09:45:58;;;;;;;2.17;0.50;;;9.20;99.90;;;;;;4992983;28;20235;-79
2024/01/05 09:48:25;;;;;;;1.60;0.53;;;9.20;99.90;;;;;;5004415;28;20191;-79
2024/01/05 09:50:55;;;;;;;1.07;0.77;;;9.20;99.90;;;;;;4985469;28;20215;-79
2024/01/05 09:53:24;;;;;;;2.03;0.50;;;9.10;99.90;;;;;;4996033;28;20199;-79
2024/01/05 09:55:52;;;;;;;1.40;0.60;;;9.10;99.90;;;;;;5007167;28;20234;-79
2024/01/05 09:58:21;;;;;;;1.13;0.70;;;9.10;99.90;;;;;;5008085;28;20199;-79
2024/01/05 10:00:50;;;;;;;0.97;0.40;;;9.10;99.90;;;;;;5005082;28;20196;-79
2024/01/05 10:03:21;;;;;;;0.87;0.40;;;9.10;99.90;;;;;;5017837;28;20195;-79
2024/01/05 10:05:50;;;;;;;0.60;0.33;;;9.10;99.90;;;;;;5016487;28;20228;-79
2024/01/05 10:08:18;;;;;;;0.63;0.30;;;9.10;99.90;;;;;;5016089;28;20215;-79
2024/01/05 10:10:48;;;;;;;0.80;0.27;;;9.00;99.90;;;;;;5016748;28;20199;-79
2024/01/05 10:13:16;;;;;;;0.70;0.53;;;9.10;99.90;;;;;;5000048;28;20215;-79
2024/01/05 10:15:54;;;;;;;0.40;0.30;;;9.00;99.90;;;;;;4993808;28;20224;-79
2024/01/05 10:18:22;;;;;;;0.43;0.30;;;9.00;99.90;;;;;;4999969;28;20705;-79
2024/01/05 10:20:50;;;;;;;1.43;0.30;;;9.00;99.90;;;;;;5020156;28;20207;-79
2024/01/05 10:23:17;;;;;;;1.10;0.60;;;9.00;99.90;;;;;;4993521;28;20646;-79
2024/01/05 10:25:47;;;;;;;0.70;0.60;;;9.00;99.90;;;;;;5011298;28;20215;-79
2024/01/05 10:28:23;;;;;;;0.90;0.53;;;9.00;99.90;;;;;;5000226;28;20583;-79
2024/01/05 10:30:51;;;;;;;2.33;0.40;;;9.00;99.90;;;;;;4997043;28;20202;-79
2024/01/05 10:33:19;;;;;;;0.97;0.60;;;9.00;99.90;;;;;;5012565;28;20202;-79
2024/01/05 10:35:47;;;;;;;1.33;0.50;;;9.00;99.90;;;;;;5015663;28;20708;-79
2024/01/05 10:38:15;;;;;;;1.00;0.40;;;9.00;99.90;;;;;;5001721;28;20199;-80
2024/01/05 10:40:42;;;;;;;0.97;0.50;;;9.10;99.90;;;;;;4995057;28;20287;-79
2024/01/05 10:43:12;;;;;;;1.57;0.50;;;9.00;99.90;;;;;;4997401;28;20203;-79
2024/01/05 10:45:41;;;;;;;1.47;0.70;;;9.00;99.90;;;;;;4998976;28;20238;-79
2024/01/05 10:48:11;;;;;;;2.13;0.70;;;9.00;99.90;;;;;;4978324;28;20196;-79
2024/01/05 10:50:41;;;;;;;1.83;0.63;;;9.00;99.90;;;;;;4986757;28;20200;-79
2024/01/05 10:53:09;;;;;;;0.97;0.40;;;9.00;99.90;;;;;;5000673;28;20196;-79
2024/01/05 10:55:39;;;;;;;0.50;0.50;;;9.00;99.90;;;;;;5012165;28;20235;-79
2024/01/05 10:58:07;;;;;;;1.00;0.50;;;9.00;99.90;;;;;;5000103;28;20561;-79
2024/01/05 11:00:37;;;;;;;1.13;0.40;;;9.00;99.90;;;;;;4983730;28;20208;-79
2024/01/05 11:03:15;;;;;;;1.57;0.60;;;9.00;99.90;;;;;;5011657;28;20207;-79
2024/01/05 11:05:56;;;;;;;0.73;0.50;;;8.90;99.90;;;;;;5013007;28;20231;-79
2024/01/05 11:08:34;;;;;;;1.47;0.50;;;8.90;99.90;;;;;;5014172;28;20199;-79
2024/01/05 11:11:11;;;;;;;0.40;0.30;;;8.90;99.90;;;;;;5007913;28;20204;-79
2024/01/05 11:13:55;;;;;;;0.60;0.40;;;8.90;99.90;;;;;;4986460;28;20203;-78
2024/01/05 11:16:55;;;;;;;1.63;0.80;;;8.80;99.90;;;;;;4983364;28;20227;-79
2024/01/05 11:19:51;;;;;;;0.67;0.60;;;8.80;99.90;;;;;;4979215;28;20203;-79
2024/01/05 11:22:27;;;;;;;1.53;0.40;;;8.80;99.90;;;;;;5009204;28;20661;-79
2024/01/05 11:24:57;;;;;;;2.57;0.80;;;8.80;99.90;;;;;;4992814;28;20202;-79
2024/01/05 11:27:29;;;;;;;0.70;0.50;;;8.80;99.90;;;;;;4998207;28;20215;-79
2024/01/05 11:29:57;;;;;;;1.23;0.50;;;8.80;99.90;;;;;;5022813;28;20210;-79
2024/01/05 11:32:42;;;;;;;1.53;0.70;;;8.80;99.90;;;;;;5003552;28;20199;-79
2024/01/05 11:35:42;;;;;;;2.23;0.60;;;8.80;99.90;;;;;;5020026;28;20704;-79
2024/01/05 11:38:30;;;;;;;0.50;0.50;;;8.80;99.90;;;;;;5017918;28;20218;-79
2024/01/05 11:40:57;;;;;;;1.77;0.60;;;8.80;99.90;;;;;;5019763;28;20203;-79
2024/01/05 11:43:37;;;;;;;1.10;0.47;;;8.80;99.90;;;;;;5002246;28;20202;-79
2024/01/05 11:46:08;;;;;;;2.50;0.67;;;8.70;99.90;;;;;;5014398;28;20219;-79
2024/01/05 11:48:51;;;;;;;1.57;0.80;;;8.70;99.90;;;;;;5005859;28;20199;-79
2024/01/05 11:51:19;;;;;;;1.60;0.60;;;8.70;99.90;;;;;;5003162;28;20203;-79
2024/01/05 11:53:50;;;;;;;1.70;0.40;;;8.70;99.90;;;;;;5007161;28;20253;-79
2024/01/05 11:56:25;;;;;;;1.80;0.70;;;8.80;99.90;;;;;;5004638;28;20224;-79
2024/01/05 11:58:53;;;;;;;0.57;0.33;;;8.80;99.90;;;;;;5015305;28;20208;-78
2024/01/05 12:01:21;;;;;;;0.67;0.50;;;8.80;99.90;;;;;;4998070;28;20566;-78
2024/01/05 12:03:54;;;;;;;1.27;0.40;;;8.80;99.90;;;;;;5002614;28;20207;-78
2024/01/05 12:06:21;;;;;;;0.97;0.57;;;8.80;99.90;;;;;;5016691;28;20211;-80
2024/01/05 12:08:48;;;;;;;2.70;0.87;;;8.80;99.90;;;;;;5000200;28;20204;-79
2024/01/05 12:11:17;;;;;;;1.73;0.60;;;8.90;99.90;;;;;;5019104;28;20195;-83
2024/01/05 12:13:50;;;;;;;1.43;0.50;;;8.90;99.90;;;;;;5003700;28;20196;-80
2024/01/05 12:16:18;;;;;;;0.83;0.60;;;8.90;99.90;;;;;;5020805;28;20212;-80
2024/01/05 12:18:49;;;;;;;1.10;0.50;;;9.00;99.90;;;;;;5012777;28;20199;-79
2024/01/05 12:21:19;;;;;;;3.53;0.80;;;8.80;99.90;;;;;;5005828;28;20207;-79
2024/01/05 12:23:52;;;;;;;1.37;0.50;;;8.90;99.90;;;;;;5007741;28;20219;-79
2024/01/05 12:26:19;;;;;;;2.07;1.07;;;8.80;99.90;;;;;;5028348;28;20723;-79
2024/01/05 12:28:48;;;;;;;2.80;0.63;;;8.80;99.90;;;;;;5029123;28;20696;-79
2024/01/05 12:31:15;;;;;;;2.20;0.70;;;8.70;99.90;;;;;;5013314;28;20196;-78
2024/01/05 12:33:44;;;;;;;1.10;0.60;;;8.70;99.90;;;;;;5024358;28;20196;-79
2024/01/05 12:36:27;;;;;;;0.57;0.40;;;8.70;99.90;;;;;;5021595;28;20233;-79
2024/01/05 12:38:54;;;;;;;1.20;0.80;;;8.60;99.90;;;;;;5029122;28;20184;-79
2024/01/05 12:41:22;;;;;;;3.83;0.70;;;8.60;99.90;;;;;;5009798;28;20206;-78
2024/01/05 12:43:51;;;;;;;2.07;0.70;;;8.60;99.90;;;;;;5011618;28;20203;-78
2024/01/05 12:46:19;;;;;;;1.50;0.60;;;8.60;99.90;;;;;;5023766;23;20226;-80
2024/01/05 12:48:46;;;;;;;1.97;0.73;;;8.60;99.90;;;;;;5018953;28;20204;-80
2024/01/05 12:51:19;;;;;;;1.80;0.67;;;8.60;99.90;;;;;;5032587;28;20658;-80
2024/01/05 12:53:58;;;;;;;1.23;0.77;;;8.60;99.90;;;;;;5031697;28;20203;-81
2024/01/05 12:56:25;;;;;;;1.63;0.87;;;8.60;99.90;;;;;;5033355;28;20226;-80
2024/01/05 12:58:53;;;;;;;1.67;0.90;;;8.50;99.90;;;;;;4999257;28;20199;-80
2024/01/05 13:01:21;;;;;;;1.27;0.70;;;8.50;99.90;;;;;;5002282;28;20199;-80
2024/01/05 13:03:53;;;;;;;1.47;0.67;;;8.50;99.90;;;;;;4999178;28;20200;-80
2024/01/05 13:06:20;;;;;;;2.47;0.70;;;8.60;99.90;;;;;;5014144;28;20215;-82